FZIC

Details ICAO FZIC
Name BANGOKA INTL
Region Democratic Republic of the Congo
Timezone Africa/Lubumbashi (UTC+2.0)
Plans Departing 17
Arriving 22
Stats Elevation 1,417 ft / 432 m (AMSL)
Location 0.481646° 25.337958°
Runways 1
Magnetic Variation 1.554° E
Sunrise 2017-12-15 04:12:22 UTC / 2017-12-15 06:12:22 Local
Sunset 2017-12-15 16:17:58 UTC / 2017-12-15 18:17:58 Local
Advertisement - Login to hide

Runways

ID Width Length Bearing (true) Bearing (mag) Surface Threshold Offset Overrun Length
13 148 ft / 45 m 11,473 ft / 3,497 m 125.02° 123.47° Asphalt 0 ft / 0 m 331 ft / 101 m
31 148 ft / 45 m 11,473 ft / 3,497 m 305.02° 303.47° Asphalt 0 ft / 0 m 322 ft / 98 m

Map

Weather


0- 5 10 15 20 25 30 35+ Temperature / ° C

Clouds and Precipitation
Forecast for 2017-12-15 12:00 UTC. Updated an hour ago

Ground ~20,000 ft ~40,000 ft Winds

METAR

FZIC 151100Z 29004KT 9999 BKN027 FEW030CB 32/25 Q1012 BECMG TS

TAF

Not found

Frequencies

Tower 121.10 MHz TWR
Approach 130.90 MHz APP
Approach 125.90 MHz APP
Warning: Do not use this data for real-world aviation or navigation. No guarantee of current accuracy is given.